KDUC/DUC METAR and TAF weather

Enter ICAO airport designator
Station Type Date Time Source
KDUC METAR 2019/04/25 01:55 UTC NOAA

KDUC 250155Z AUTO 34005KT 10SM CLR 16/14 A2983 RMK AO2 T01560137


Station Type Date Time Source
KDUC Decoded METAR 2019/04/25 01:55 UTC NOAA

Duncan, Halliburton Field Airport, OK, United States (KDUC) 34-28-15N 097-57-36W
Apr 24, 2019 - 09:55 PM EDT / 2019.04.25 0155 UTC
Wind: from the NNW (340 degrees) at 6 MPH (5 KT):0
Visibility: 10 mile(s):0
Sky conditions: clear
Temperature: 60.1 F (15.6 C)
Dew Point: 56.7 F (13.7 C)
Relative Humidity: 88%
Pressure (altimeter): 29.83 in. Hg (1010 hPa)
ob: KDUC 250155Z AUTO 34005KT 10SM CLR 16/14 A2983 RMK AO2 T01560137
cycle: 2

Station Type Date Time Source
KDUC TAF UTC NOAA

Error!

Example: see airport list